Time;durP1;ratioP1;P1;durP2;ratioP2;P2;SDS_P1;SDS_P2;PMS_P1;PMS_P2;Temp;Humidity;BMP_temperature;BMP_pressure;BME280_temperature;BME280_humidity;BME280_pressure;Samples;Min_cycle;Max_cycle;Signal;HPM_P1;HPM_P2
2023/01/05 00:01:02;;;;;;;0.60;0.60;;;18.50;64.30;;;;;;4994420;28;20196;-67
2023/01/05 00:03:28;;;;;;;0.80;0.70;;;18.60;64.40;;;;;;5010584;28;20200;-67
2023/01/05 00:06:02;;;;;;;1.33;0.45;;;18.50;64.30;;;;;;4977826;28;20219;-67
2023/01/05 00:08:28;;;;;;;0.57;0.52;;;18.60;64.40;;;;;;4976815;28;20257;-67
2023/01/05 00:24:41;;;;;;;0.52;0.40;;;18.60;64.40;;;;;;4993893;28;20263;-67
2023/01/05 00:27:06;;;;;;;1.08;0.50;;;18.50;64.30;;;;;;5018428;28;20213;-66
2023/01/05 00:29:32;;;;;;;0.40;0.40;;;18.60;64.40;;;;;;4992833;28;20200;-67
2023/01/05 00:31:58;;;;;;;1.02;0.60;;;18.50;64.30;;;;;;4977319;28;20211;-67
2023/01/05 00:34:24;;;;;;;0.45;0.40;;;18.50;64.30;;;;;;4978994;28;20197;-66
2023/01/05 00:36:50;;;;;;;0.75;0.63;;;18.50;64.30;;;;;;4993649;28;20203;-67
2023/01/05 00:39:15;;;;;;;0.80;0.50;;;18.60;64.50;;;;;;5009584;28;20691;-66
2023/01/05 00:41:41;;;;;;;0.52;0.52;;;18.50;64.30;;;;;;4978283;28;20581;-66
2023/01/05 00:44:07;;;;;;;0.40;0.40;;;18.50;64.30;;;;;;4973981;28;20193;-67
2023/01/05 00:46:33;;;;;;;0.60;0.60;;;18.60;64.40;;;;;;5008486;28;20216;-67
2023/01/05 00:48:58;;;;;;;0.65;0.50;;;18.60;64.50;;;;;;4976936;28;20213;-67
2023/01/05 00:51:24;;;;;;;0.77;0.57;;;18.50;64.40;;;;;;4976668;28;20193;-67
2023/01/05 00:53:50;;;;;;;0.70;0.50;;;18.50;64.30;;;;;;4989996;28;20185;-67
2023/01/05 00:56:15;;;;;;;0.68;0.45;;;18.60;64.50;;;;;;4993153;28;20197;-67
2023/01/05 00:58:41;;;;;;;0.40;0.35;;;18.50;64.40;;;;;;4983947;28;20219;-67
2023/01/05 01:01:11;;;;;;;0.60;0.60;;;18.50;64.40;;;;;;4976742;28;20288;-67
2023/01/05 01:03:38;;;;;;;0.90;0.40;;;18.50;64.30;;;;;;4976521;28;20189;-67
2023/01/05 01:06:04;;;;;;;0.40;0.40;;;18.50;64.30;;;;;;4997666;28;20251;-67
2023/01/05 01:08:30;;;;;;;0.95;0.40;;;18.50;64.30;;;;;;4992339;28;20220;-66
2023/01/05 01:10:55;;;;;;;0.63;0.63;;;18.60;64.50;;;;;;4973418;28;20181;-67
2023/01/05 01:13:24;;;;;;;1.23;0.45;;;18.50;64.30;;;;;;5023315;28;20196;-67
2023/01/05 01:15:50;;;;;;;0.57;0.47;;;18.60;64.50;;;;;;4976709;28;20189;-66
2023/01/05 01:18:16;;;;;;;0.90;0.50;;;18.50;64.40;;;;;;4998450;28;20216;-67
2023/01/05 01:20:41;;;;;;;0.93;0.40;;;18.50;64.40;;;;;;4992494;28;20193;-67
2023/01/05 01:23:07;;;;;;;0.68;0.50;;;18.60;64.60;;;;;;4992731;28;20251;-67
2023/01/05 01:25:33;;;;;;;0.82;0.43;;;18.60;64.50;;;;;;4976162;28;20680;-67
2023/01/05 01:27:59;;;;;;;0.47;0.43;;;18.50;64.40;;;;;;4981846;28;20246;-67
2023/01/05 01:30:24;;;;;;;1.20;0.70;;;18.50;64.40;;;;;;4992005;28;20188;-66
2023/01/05 01:32:50;;;;;;;1.48;0.40;;;18.50;64.40;;;;;;4993575;28;20193;-67
2023/01/05 01:35:16;;;;;;;0.50;0.50;;;18.50;64.40;;;;;;4992376;28;20199;-66
2023/01/05 01:37:42;;;;;;;0.50;0.50;;;18.60;64.60;;;;;;4975965;28;20188;-67
2023/01/05 01:40:09;;;;;;;0.80;0.50;;;18.50;64.40;;;;;;4996607;28;20218;-67
2023/01/05 01:42:35;;;;;;;0.65;0.60;;;18.50;64.40;;;;;;4985153;28;20200;-67
2023/01/05 01:45:17;;;;;;;1.25;0.57;;;18.60;64.60;;;;;;4976167;28;20254;-67
2023/01/05 01:47:50;;;;;;;0.50;0.50;;;18.50;64.50;;;;;;5005464;28;20189;-68
2023/01/05 01:50:40;;;;;;;0.60;0.60;;;18.60;64.60;;;;;;5021128;28;20201;-67
2023/01/05 01:53:15;;;;;;;1.00;0.50;;;18.50;64.50;;;;;;4972549;28;20193;-67
2023/01/05 01:55:42;;;;;;;0.40;0.38;;;18.50;64.40;;;;;;4975555;28;20235;-67
2023/01/05 01:58:15;;;;;;;0.70;0.50;;;18.60;64.60;;;;;;4975720;28;20199;-67
2023/01/05 02:00:42;;;;;;;0.73;0.50;;;18.50;64.50;;;;;;4972062;28;20204;-67
2023/01/05 02:03:09;;;;;;;0.50;0.50;;;18.50;64.50;;;;;;4991844;28;20184;-68
2023/01/05 02:05:38;;;;;;;1.13;0.40;;;18.60;64.70;;;;;;5007886;28;20216;-68
2023/01/05 02:08:14;;;;;;;0.38;0.38;;;18.60;64.60;;;;;;4992806;28;20185;-68
2023/01/05 02:11:01;;;;;;;0.88;0.40;;;18.50;64.50;;;;;;4971728;28;20208;-68
2023/01/05 02:14:01;;;;;;;0.63;0.55;;;18.50;64.50;;;;;;5007900;28;20194;-67
2023/01/05 02:16:42;;;;;;;0.38;0.30;;;18.50;64.50;;;;;;5008047;28;20196;-67
2023/01/05 02:19:30;;;;;;;0.68;0.40;;;18.50;64.50;;;;;;5007230;28;20216;-67
2023/01/05 02:22:18;;;;;;;0.40;0.40;;;18.50;64.50;;;;;;5001400;28;20200;-68
2023/01/05 02:25:31;;;;;;;3.10;0.47;;;18.50;64.50;;;;;;4967345;28;20196;-67
2023/01/05 02:28:21;;;;;;;0.40;0.40;;;18.50;64.50;;;;;;4959453;28;20580;-67
2023/01/05 02:31:05;;;;;;;0.43;0.40;;;18.60;64.70;;;;;;4973961;28;20193;-67
2023/01/05 02:34:15;;;;;;;0.88;0.30;;;18.50;64.50;;;;;;4972998;28;20212;-67
2023/01/05 02:37:15;;;;;;;0.40;0.40;;;18.50;64.50;;;;;;4999639;28;20577;-66
2023/01/05 02:40:33;;;;;;;0.55;0.55;;;18.60;64.70;;;;;;4975111;28;20208;-67
2023/01/05 02:43:01;;;;;;;0.45;0.43;;;18.60;64.80;;;;;;4980043;28;20231;-67
2023/01/05 02:45:27;;;;;;;0.40;0.40;;;18.50;64.60;;;;;;4988223;28;20213;-67
2023/01/05 02:47:57;;;;;;;0.50;0.40;;;18.60;64.80;;;;;;4975812;28;20185;-67
2023/01/05 02:50:36;;;;;;;0.30;0.30;;;18.60;64.80;;;;;;4991223;28;20200;-66
2023/01/05 02:53:24;;;;;;;0.40;0.38;;;18.60;64.80;;;;;;4972150;28;20257;-67
2023/01/05 02:56:22;;;;;;;0.32;0.32;;;18.50;64.60;;;;;;4991316;28;20196;-66
2023/01/05 02:58:50;;;;;;;0.30;0.30;;;18.60;64.80;;;;;;4974289;28;20231;-67
2023/01/05 03:01:25;;;;;;;0.30;0.30;;;18.60;64.90;;;;;;4986656;28;20276;-67
2023/01/05 03:04:32;;;;;;;0.40;0.40;;;18.50;64.70;;;;;;4989171;28;20283;-67
2023/01/05 03:07:05;;;;;;;1.40;0.40;;;18.60;64.80;;;;;;5007124;28;20715;-67
2023/01/05 03:09:38;;;;;;;0.63;0.35;;;18.50;64.60;;;;;;4978212;28;20217;-67
2023/01/05 03:15:35;;;;;;;0.45;0.45;;;18.60;64.80;;;;;;5027620;28;20184;-67
2023/01/05 03:18:17;;;;;;;0.60;0.30;;;18.60;65.50;;;;;;5021556;28;20181;-67
2023/01/05 03:20:51;;;;;;;0.57;0.30;;;18.60;64.90;;;;;;4986642;28;20247;-67
2023/01/05 03:38:05;;;;;;;1.30;0.30;;;18.60;64.90;;;;;;4987195;28;20682;-67
2023/01/05 06:18:43;;;;;;;1.65;0.50;;;18.50;64.00;;;;;;5047884;27;20611;-70
2023/01/05 06:21:09;;;;;;;0.30;0.30;;;18.40;64.70;;;;;;5028439;28;20571;-70
2023/01/05 06:23:35;;;;;;;0.50;0.50;;;18.50;64.80;;;;;;5029646;28;20272;-69
2023/01/05 06:26:01;;;;;;;0.50;0.28;;;18.50;64.70;;;;;;5019852;28;20187;-70
2023/01/05 06:28:26;;;;;;;0.30;0.30;;;18.50;64.70;;;;;;5028405;28;20706;-69
2023/01/05 06:30:52;;;;;;;0.40;0.40;;;18.50;64.70;;;;;;5026646;28;20199;-69
2023/01/05 06:33:18;;;;;;;0.35;0.35;;;18.50;64.70;;;;;;5008960;28;20193;-70
2023/01/05 06:35:43;;;;;;;0.55;0.50;;;18.50;64.70;;;;;;5007912;28;20191;-69
2023/01/05 06:38:09;;;;;;;0.45;0.30;;;18.50;64.70;;;;;;5026961;28;20222;-69
2023/01/05 06:40:37;;;;;;;0.47;0.30;;;18.50;64.80;;;;;;5016582;28;20224;-69
2023/01/05 06:43:03;;;;;;;0.25;0.25;;;18.50;64.80;;;;;;5009647;28;20181;-69
2023/01/05 06:45:29;;;;;;;0.52;0.52;;;18.50;64.80;;;;;;5012055;28;20183;-69
2023/01/05 06:47:56;;;;;;;0.40;0.40;;;18.50;64.80;;;;;;5011180;28;20277;-70
2023/01/05 06:50:22;;;;;;;0.35;0.35;;;18.50;64.80;;;;;;5020030;28;20230;-69
2023/01/05 06:52:47;;;;;;;0.20;0.20;;;18.50;64.80;;;;;;5012858;28;20644;-70
2023/01/05 06:55:13;;;;;;;0.30;0.20;;;18.50;64.80;;;;;;5008202;28;20184;-69
2023/01/05 06:57:39;;;;;;;0.30;0.30;;;18.50;64.80;;;;;;5023076;28;20195;-70
2023/01/05 07:00:09;;;;;;;1.95;0.30;;;18.50;64.80;;;;;;5011317;28;20183;-69
2023/01/05 07:02:35;;;;;;;0.40;0.40;;;18.50;64.80;;;;;;5005997;28;20192;-69
2023/01/05 07:05:01;;;;;;;0.30;0.30;;;18.50;64.80;;;;;;4992148;28;20184;-70
2023/01/05 07:07:27;;;;;;;0.30;0.30;;;18.50;64.80;;;;;;5007521;28;20184;-69
2023/01/05 07:09:53;;;;;;;0.50;0.50;;;18.50;64.90;;;;;;5036888;28;20211;-69
2023/01/05 07:12:19;;;;;;;0.30;0.30;;;18.50;64.90;;;;;;5027016;28;20192;-69
2023/01/05 07:14:44;;;;;;;0.30;0.30;;;18.50;64.90;;;;;;5028711;28;20183;-69
2023/01/05 07:17:11;;;;;;;0.50;0.50;;;18.50;64.90;;;;;;5010266;28;20298;-69
2023/01/05 07:19:38;;;;;;;0.40;0.40;;;18.50;64.90;;;;;;5014487;28;20208;-69
2023/01/05 07:22:04;;;;;;;0.40;0.40;;;18.50;64.90;;;;;;5012701;28;20184;-69
2023/01/05 07:24:29;;;;;;;0.65;0.40;;;18.50;64.90;;;;;;5007127;28;20176;-69
2023/01/05 07:26:57;;;;;;;0.85;0.50;;;18.50;64.90;;;;;;5014128;28;20187;-70
2023/01/05 07:29:23;;;;;;;0.30;0.30;;;18.50;64.90;;;;;;5005526;28;20207;-69
2023/01/05 07:31:51;;;;;;;0.30;0.30;;;18.50;65.00;;;;;;5006580;28;20188;-69
2023/01/05 07:34:21;;;;;;;0.30;0.30;;;18.50;64.90;;;;;;5000096;28;20193;-69
2023/01/05 07:36:48;;;;;;;0.30;0.30;;;18.50;64.90;;;;;;4986169;28;20212;-69
2023/01/05 07:39:15;;;;;;;0.32;0.32;;;18.50;65.00;;;;;;5003576;28;20360;-69
2023/01/05 07:41:41;;;;;;;0.40;0.40;;;18.50;65.00;;;;;;4989151;28;20242;-69
2023/01/05 07:44:07;;;;;;;0.30;0.30;;;18.50;64.90;;;;;;5013324;28;20224;-69
2023/01/05 07:46:33;;;;;;;0.55;0.55;;;18.50;64.90;;;;;;5013525;28;20239;-69
2023/01/05 07:49:00;;;;;;;0.60;0.30;;;18.50;65.00;;;;;;4988726;28;20220;-69
2023/01/05 07:51:25;;;;;;;0.40;0.40;;;18.50;65.00;;;;;;4989610;28;20184;-69
2023/01/05 07:53:52;;;;;;;0.30;0.30;;;18.50;65.00;;;;;;4988942;28;20184;-70
2023/01/05 07:56:18;;;;;;;0.30;0.30;;;18.50;65.00;;;;;;5002325;28;20217;-69
2023/01/05 07:58:44;;;;;;;0.30;0.30;;;18.50;65.00;;;;;;5008063;28;20243;-70
2023/01/05 08:01:14;;;;;;;0.40;0.40;;;18.50;65.00;;;;;;4996818;28;20243;-69
2023/01/05 08:03:40;;;;;;;0.50;0.50;;;18.50;65.00;;;;;;4993463;28;20312;-69
2023/01/05 08:06:10;;;;;;;0.30;0.30;;;18.50;65.00;;;;;;4985027;28;20392;-70
2023/01/05 08:08:36;;;;;;;0.50;0.50;;;18.50;65.00;;;;;;5004581;28;20298;-69
2023/01/05 08:11:08;;;;;;;0.38;0.35;;;18.50;65.00;;;;;;4996739;28;20173;-69
2023/01/05 08:16:18;;;;;;;1.02;0.32;;;18.50;65.00;;;;;;5012509;28;20214;-69
2023/01/05 08:18:44;;;;;;;0.40;0.40;;;18.50;65.00;;;;;;4987387;28;20201;-69
2023/01/05 08:21:10;;;;;;;1.20;0.45;;;18.50;65.10;;;;;;5009887;28;20202;-69
2023/01/05 08:23:37;;;;;;;0.40;0.30;;;18.50;65.10;;;;;;4990394;28;20172;-69
2023/01/05 08:26:07;;;;;;;0.40;0.40;;;18.50;65.10;;;;;;5001574;28;20616;-69
2023/01/05 08:28:37;;;;;;;0.70;0.45;;;18.50;65.00;;;;;;4989863;28;20673;-69
2023/01/05 08:31:20;;;;;;;0.30;0.30;;;18.50;65.10;;;;;;4981995;28;20672;-68
2023/01/05 08:33:46;;;;;;;0.30;0.30;;;18.50;65.10;;;;;;5001778;28;20187;-69
2023/01/05 08:36:18;;;;;;;0.50;0.50;;;18.50;65.10;;;;;;4986520;28;20214;-69
2023/01/05 08:38:48;;;;;;;0.40;0.40;;;18.50;65.10;;;;;;5004369;28;20323;-69
2023/01/05 08:41:25;;;;;;;0.52;0.40;;;18.50;65.10;;;;;;5004358;28;20211;-68
2023/01/05 08:43:57;;;;;;;0.40;0.40;;;18.50;65.10;;;;;;5012304;28;20195;-69
2023/01/05 08:46:26;;;;;;;0.50;0.50;;;18.50;65.10;;;;;;5002841;28;20279;-69
2023/01/05 08:48:55;;;;;;;0.55;0.38;;;18.50;65.10;;;;;;5004746;28;20213;-69
2023/01/05 08:51:21;;;;;;;1.02;0.40;;;18.50;65.10;;;;;;5011941;28;20187;-69
2023/01/05 08:53:47;;;;;;;0.57;0.40;;;18.50;65.10;;;;;;4985630;28;20559;-69
2023/01/05 08:56:14;;;;;;;0.30;0.30;;;18.50;65.10;;;;;;5010870;28;20203;-69
2023/01/05 08:58:41;;;;;;;0.40;0.40;;;18.50;65.20;;;;;;5010147;28;20281;-69
2023/01/05 09:01:16;;;;;;;0.50;0.50;;;18.50;65.10;;;;;;5003813;28;20185;-69
2023/01/05 09:03:43;;;;;;;0.32;0.32;;;18.50;65.10;;;;;;5011117;28;20186;-69
2023/01/05 09:06:11;;;;;;;0.60;0.57;;;18.50;65.10;;;;;;5003181;28;20228;-68
2023/01/05 09:08:40;;;;;;;0.30;0.30;;;18.50;65.10;;;;;;4985478;28;20208;-69
2023/01/05 09:11:07;;;;;;;0.40;0.40;;;18.50;65.10;;;;;;5026315;28;20640;-69
2023/01/05 09:13:34;;;;;;;0.40;0.40;;;18.50;65.10;;;;;;4987744;28;20223;-69
2023/01/05 09:16:12;;;;;;;0.55;0.55;;;18.50;65.10;;;;;;5008766;28;20177;-68
2023/01/05 09:18:40;;;;;;;0.50;0.50;;;18.50;65.10;;;;;;4997438;28;20228;-69
2023/01/05 09:21:08;;;;;;;0.65;0.50;;;18.50;65.10;;;;;;5001809;28;20181;-69
2023/01/05 09:23:35;;;;;;;0.63;0.50;;;18.50;65.10;;;;;;4988900;28;20244;-69
2023/01/05 09:26:07;;;;;;;0.50;0.50;;;18.50;65.10;;;;;;4984603;28;20223;-69
2023/01/05 09:28:35;;;;;;;0.40;0.40;;;18.50;65.10;;;;;;5001452;28;20258;-69
2023/01/05 09:31:08;;;;;;;0.40;0.40;;;18.60;65.20;;;;;;4984293;28;20213;-68
2023/01/05 09:33:35;;;;;;;0.30;0.30;;;18.50;65.00;;;;;;5012409;28;20187;-69
2023/01/05 09:36:00;;;;;;;0.20;0.20;;;18.50;65.10;;;;;;5011348;28;20237;-69
2023/01/05 09:38:26;;;;;;;0.40;0.40;;;18.50;65.10;;;;;;4998798;28;20995;-69
2023/01/05 09:40:58;;;;;;;0.40;0.40;;;18.50;65.10;;;;;;4975273;28;20187;-69
2023/01/05 09:43:34;;;;;;;0.85;0.40;;;18.60;65.20;;;;;;5012379;28;20234;-69
2023/01/05 09:46:09;;;;;;;0.65;0.40;;;18.50;65.10;;;;;;5011060;28;20187;-68
2023/01/05 09:48:49;;;;;;;0.75;0.40;;;18.50;65.10;;;;;;5027491;28;20732;-69
2023/01/05 09:51:15;;;;;;;0.30;0.30;;;18.50;65.10;;;;;;4978937;28;20188;-69
2023/01/05 09:53:41;;;;;;;0.40;0.40;;;18.60;65.10;;;;;;5024380;28;20196;-70
2023/01/05 09:56:42;;;;;;;0.40;0.40;;;18.60;65.10;;;;;;5000920;28;20188;-69
2023/01/05 09:59:32;;;;;;;0.32;0.32;;;18.60;65.10;;;;;;5003686;28;20220;-69
2023/01/05 10:02:08;;;;;;;0.40;0.40;;;18.60;65.20;;;;;;5003014;28;20196;-69
2023/01/05 10:04:34;;;;;;;1.60;0.50;;;18.60;65.10;;;;;;5005718;28;20669;-69
2023/01/05 10:07:13;;;;;;;0.30;0.30;;;18.60;65.20;;;;;;4999957;28;20206;-68
2023/01/05 10:09:39;;;;;;;0.50;0.50;;;18.60;65.20;;;;;;5010900;28;20203;-68
2023/01/05 10:15:13;;;;;;;0.70;0.50;;;18.60;65.20;;;;;;5007361;28;20224;-69
2023/01/05 10:17:40;;;;;;;0.45;0.40;;;18.60;65.10;;;;;;5013030;28;20212;-69
2023/01/05 10:20:44;;;;;;;0.30;0.30;;;18.60;65.20;;;;;;5009958;28;20194;-69
2023/01/05 10:23:29;;;;;;;0.30;0.30;;;18.60;65.20;;;;;;5007941;28;20229;-69
2023/01/05 10:26:11;;;;;;;0.40;0.40;;;18.60;65.20;;;;;;5022529;28;20195;-69
2023/01/05 10:28:58;;;;;;;0.30;0.30;;;18.60;65.10;;;;;;5004620;28;20203;-69
2023/01/05 10:31:42;;;;;;;0.60;0.60;;;18.60;65.10;;;;;;5003279;28;20648;-69
2023/01/05 10:34:27;;;;;;;0.30;0.30;;;18.60;65.20;;;;;;5003580;28;20195;-69
2023/01/05 10:37:08;;;;;;;0.32;0.32;;;18.60;65.20;;;;;;5010998;28;20258;-69
2023/01/05 10:40:00;;;;;;;0.70;0.63;;;18.60;65.20;;;;;;5005872;28;20635;-69
2023/01/05 10:42:39;;;;;;;0.40;0.40;;;18.60;65.10;;;;;;4999538;28;20212;-69
2023/01/05 10:45:13;;;;;;;0.30;0.30;;;18.60;65.20;;;;;;4992329;28;20681;-69
2023/01/05 10:47:40;;;;;;;1.55;0.55;;;18.60;65.10;;;;;;5004711;28;20185;-69
2023/01/05 10:50:38;;;;;;;0.73;0.40;;;18.60;65.20;;;;;;4989021;28;20256;-69
2023/01/05 10:53:10;;;;;;;0.65;0.50;;;18.60;65.10;;;;;;5015358;28;20251;-70
2023/01/05 10:56:22;;;;;;;0.60;0.60;;;18.60;65.20;;;;;;4986768;28;20216;-69
2023/01/05 10:59:06;;;;;;;0.60;0.60;;;18.60;65.20;;;;;;4988706;28;20223;-69
2023/01/05 11:01:34;;;;;;;0.30;0.30;;;18.60;65.10;;;;;;5030958;28;20200;-71
2023/01/05 11:04:20;;;;;;;0.93;0.40;;;18.60;65.10;;;;;;5013589;28;20185;-69
2023/01/05 11:06:46;;;;;;;0.98;0.60;;;18.60;65.20;;;;;;5027346;28;20187;-70
2023/01/05 11:09:22;;;;;;;0.73;0.40;;;18.60;65.30;;;;;;5006886;28;20218;-70
2023/01/05 11:12:00;;;;;;;0.30;0.30;;;18.60;65.20;;;;;;5002602;28;20207;-69
2023/01/05 11:14:30;;;;;;;1.85;0.60;;;18.60;65.30;;;;;;5001295;28;20184;-69
2023/01/05 11:17:04;;;;;;;0.50;0.50;;;18.60;65.40;;;;;;5016918;28;20220;-70
2023/01/05 11:19:45;;;;;;;0.50;0.50;;;18.60;65.40;;;;;;5009033;28;20653;-69
2023/01/05 11:22:38;;;;;;;1.10;0.52;;;18.60;65.40;;;;;;5005585;28;20201;-69
2023/01/05 11:25:14;;;;;;;1.63;0.60;;;18.60;65.40;;;;;;5008574;28;20216;-69
2023/01/05 11:27:40;;;;;;;1.15;0.50;;;18.60;65.30;;;;;;4993982;28;20184;-69
2023/01/05 11:30:26;;;;;;;1.30;0.40;;;18.60;65.40;;;;;;5011446;28;20239;-69
2023/01/05 11:32:52;;;;;;;0.50;0.40;;;18.60;65.40;;;;;;5025767;28;20191;-69
2023/01/05 11:35:26;;;;;;;0.60;0.60;;;18.60;65.40;;;;;;4997991;28;20192;-69
2023/01/05 11:37:52;;;;;;;0.55;0.55;;;18.60;65.40;;;;;;5025523;28;20211;-69
2023/01/05 11:40:26;;;;;;;0.50;0.50;;;18.60;65.40;;;;;;5009758;28;20184;-69
2023/01/05 11:42:52;;;;;;;2.58;0.50;;;18.60;65.30;;;;;;5013422;28;20680;-70
2023/01/05 11:45:23;;;;;;;1.67;0.50;;;18.60;65.30;;;;;;5005529;28;20184;-69
2023/01/05 11:47:53;;;;;;;0.50;0.50;;;18.60;65.30;;;;;;5013069;28;20274;-69
2023/01/05 11:50:24;;;;;;;0.45;0.45;;;18.60;65.30;;;;;;5013326;28;20206;-69
2023/01/05 11:52:56;;;;;;;0.55;0.40;;;18.60;65.40;;;;;;4988916;28;20194;-69
2023/01/05 11:55:33;;;;;;;0.50;0.40;;;18.60;65.40;;;;;;4995348;28;20185;-69
2023/01/05 11:58:29;;;;;;;0.75;0.70;;;18.60;65.40;;;;;;5000988;28;20224;-69
2023/01/05 12:01:16;;;;;;;0.52;0.50;;;18.60;65.40;;;;;;5010055;28;20192;-69
2023/01/05 12:04:28;;;;;;;0.65;0.50;;;18.60;65.40;;;;;;5021672;28;20211;-69
2023/01/05 12:07:28;;;;;;;2.13;0.60;;;18.60;65.40;;;;;;5010562;28;20694;-69
2023/01/05 12:10:16;;;;;;;0.70;0.70;;;18.60;65.40;;;;;;4993166;28;20278;-69
2023/01/05 12:13:00;;;;;;;0.73;0.57;;;18.60;65.40;;;;;;4997064;28;20195;-69
2023/01/05 12:15:56;;;;;;;0.60;0.60;;;18.60;65.90;;;;;;5029123;28;20192;-70
2023/01/05 12:18:56;;;;;;;0.40;0.40;;;18.60;65.40;;;;;;5010334;28;20303;-69
2023/01/05 12:21:26;;;;;;;0.45;0.45;;;18.60;65.40;;;;;;4989149;28;20188;-69
2023/01/05 12:24:20;;;;;;;0.60;0.60;;;18.60;65.40;;;;;;5014051;28;20187;-69
2023/01/05 12:27:32;;;;;;;1.30;0.70;;;18.60;65.40;;;;;;5012940;28;20280;-69
2023/01/05 12:30:50;;;;;;;1.30;0.57;;;18.60;65.40;;;;;;4969888;28;20279;-69
2023/01/05 12:33:52;;;;;;;0.98;0.70;;;18.60;65.30;;;;;;4996191;28;20251;-69
2023/01/05 12:36:48;;;;;;;1.67;0.65;;;18.60;65.30;;;;;;4999028;28;20181;-70
2023/01/05 12:40:05;;;;;;;0.65;0.60;;;18.60;65.40;;;;;;4993701;28;20209;-69
2023/01/05 12:43:16;;;;;;;1.17;0.80;;;18.60;65.40;;;;;;5005725;28;20192;-69
2023/01/05 12:46:07;;;;;;;0.80;0.80;;;18.50;65.20;;;;;;5009499;28;20200;-69
2023/01/05 12:48:54;;;;;;;0.93;0.77;;;18.60;65.30;;;;;;5016041;28;20219;-69
2023/01/05 12:51:41;;;;;;;0.82;0.60;;;18.60;65.40;;;;;;4996918;28;20676;-69
2023/01/05 12:54:22;;;;;;;1.38;0.70;;;18.60;65.30;;;;;;4986661;28;20224;-69
2023/01/05 12:57:00;;;;;;;1.50;0.73;;;18.60;65.30;;;;;;4992626;28;20216;-70
2023/01/05 12:59:44;;;;;;;1.45;1.08;;;18.60;65.30;;;;;;5012434;28;20208;-70
2023/01/05 13:02:35;;;;;;;2.38;0.77;;;18.60;65.40;;;;;;5009470;28;20204;-70
2023/01/05 13:05:07;;;;;;;0.57;0.57;;;18.60;65.40;;;;;;4994265;28;20185;-70
2023/01/05 13:07:48;;;;;;;0.60;0.60;;;18.50;65.30;;;;;;5012658;28;20180;-70
2023/01/05 13:10:27;;;;;;;0.90;0.57;;;18.60;65.40;;;;;;5022676;28;20676;-70
2023/01/05 13:13:00;;;;;;;0.80;0.60;;;18.50;65.20;;;;;;4993584;28;20181;-69
2023/01/05 13:16:02;;;;;;;0.60;0.60;;;18.60;65.40;;;;;;4992216;28;20251;-69
2023/01/05 13:18:30;;;;;;;0.70;0.70;;;18.60;65.30;;;;;;4982535;28;20610;-70
2023/01/05 13:21:00;;;;;;;0.57;0.57;;;18.60;65.30;;;;;;4993476;28;20188;-70
2023/01/05 13:23:44;;;;;;;0.82;0.70;;;18.60;65.30;;;;;;4992729;28;20184;-69
2023/01/05 13:26:19;;;;;;;0.68;0.68;;;18.60;65.30;;;;;;4989118;28;20220;-69
2023/01/05 13:28:51;;;;;;;1.48;1.00;;;18.60;65.20;;;;;;5012819;28;20203;-69
2023/01/05 13:31:56;;;;;;;0.57;0.57;;;18.60;65.20;;;;;;5028557;28;20311;-69
2023/01/05 13:35:07;;;;;;;0.95;0.70;;;18.60;65.20;;;;;;5011662;28;20648;-69
2023/01/05 13:38:14;;;;;;;1.73;0.82;;;18.60;65.30;;;;;;5010557;28;20200;-70
2023/01/05 13:41:02;;;;;;;0.75;0.65;;;18.60;65.20;;;;;;4991962;28;20208;-70
2023/01/05 13:43:49;;;;;;;1.23;0.88;;;18.50;65.10;;;;;;4992594;28;20227;-70
2023/01/05 13:46:57;;;;;;;0.70;0.60;;;18.50;65.30;;;;;;5000337;28;20196;-69
2023/01/05 13:49:35;;;;;;;2.33;0.80;;;18.60;65.30;;;;;;4983332;28;20204;-70
2023/01/05 13:52:47;;;;;;;0.60;0.60;;;18.60;65.20;;;;;;5024396;28;20196;-69
2023/01/05 13:55:18;;;;;;;1.23;0.70;;;18.60;65.10;;;;;;5008583;28;20195;-70
2023/01/05 13:57:46;;;;;;;0.80;0.70;;;18.50;65.00;;;;;;5002364;28;20220;-70
2023/01/05 14:00:24;;;;;;;2.55;0.90;;;18.50;64.90;;;;;;5025732;28;20246;-69
2023/01/05 14:03:25;;;;;;;1.45;0.73;;;18.60;65.10;;;;;;5018482;28;20653;-69
2023/01/05 14:05:57;;;;;;;1.10;0.70;;;18.50;65.00;;;;;;5005627;28;20227;-70
2023/01/05 14:08:38;;;;;;;1.52;0.80;;;18.60;65.00;;;;;;5026702;28;20213;-69
2023/01/05 14:11:20;;;;;;;0.80;0.80;;;18.50;64.90;;;;;;5001625;28;20228;-69
2023/01/05 14:13:57;;;;;;;1.13;0.63;;;18.60;65.00;;;;;;4991344;28;20260;-69
2023/01/05 14:16:37;;;;;;;1.40;0.77;;;18.50;64.90;;;;;;5000020;28;20192;-69
2023/01/05 14:19:20;;;;;;;2.13;0.80;;;18.60;65.00;;;;;;4997016;28;20250;-70
2023/01/05 14:21:48;;;;;;;0.90;0.80;;;18.50;64.90;;;;;;4991089;28;20193;-70
2023/01/05 14:24:36;;;;;;;1.45;0.85;;;18.50;64.80;;;;;;5010411;28;20180;-69
2023/01/05 14:27:20;;;;;;;1.33;0.68;;;18.50;64.90;;;;;;4994298;28;20188;-69
2023/01/05 14:29:48;;;;;;;6.05;1.02;;;18.50;64.90;;;;;;4997233;28;20211;-71
2023/01/05 14:32:29;;;;;;;1.90;1.00;;;18.50;64.90;;;;;;5012128;28;20203;-69
2023/01/05 14:35:10;;;;;;;1.02;0.90;;;18.50;64.80;;;;;;4995072;28;20192;-69
2023/01/05 14:37:54;;;;;;;1.48;0.80;;;18.50;64.80;;;;;;4990701;28;20235;-69
2023/01/05 14:40:51;;;;;;;1.20;0.65;;;18.50;64.80;;;;;;5010893;28;20665;-70
2023/01/05 14:43:20;;;;;;;1.77;1.00;;;18.50;64.90;;;;;;4996205;28;20246;-71
2023/01/05 14:46:05;;;;;;;1.23;0.80;;;18.50;64.80;;;;;;4986397;28;20222;-68
2023/01/05 14:48:37;;;;;;;1.63;0.70;;;18.50;64.80;;;;;;4997549;28;20211;-71
2023/01/05 14:51:22;;;;;;;0.93;0.70;;;18.50;64.90;;;;;;4996850;28;20662;-70
2023/01/05 14:53:55;;;;;;;1.25;0.70;;;18.50;64.80;;;;;;5002724;28;20270;-70
2023/01/05 14:56:23;;;;;;;2.25;0.70;;;18.50;64.80;;;;;;5027268;28;20193;-70
2023/01/05 14:59:18;;;;;;;2.90;0.80;;;18.50;64.80;;;;;;4994228;28;20227;-69
2023/01/05 15:02:00;;;;;;;2.30;0.90;;;18.50;64.80;;;;;;4997249;28;20284;-70
2023/01/05 15:04:37;;;;;;;1.25;0.82;;;18.60;64.90;;;;;;4986350;28;20220;-69
2023/01/05 15:07:39;;;;;;;1.08;0.80;;;18.50;64.70;;;;;;4995090;28;20218;-70
2023/01/05 15:10:23;;;;;;;2.15;0.95;;;18.50;64.80;;;;;;5014687;28;20654;-70
2023/01/05 15:13:21;;;;;;;2.45;1.00;;;18.50;64.80;;;;;;4990515;28;20188;-70
2023/01/05 15:16:01;;;;;;;1.60;1.00;;;18.50;64.70;;;;;;5004437;28;20275;-68
2023/01/05 15:18:35;;;;;;;2.72;1.23;;;18.50;64.70;;;;;;5006912;28;20239;-70
2023/01/05 15:21:06;;;;;;;1.83;0.90;;;18.50;64.70;;;;;;4997524;28;20195;-69
2023/01/05 15:24:18;;;;;;;1.40;0.93;;;18.50;64.80;;;;;;5015225;28;20192;-70
2023/01/05 15:27:20;;;;;;;2.03;0.90;;;18.50;64.70;;;;;;5005685;28;20192;-69
2023/01/05 15:30:27;;;;;;;2.88;1.20;;;18.50;64.70;;;;;;5009305;28;20237;-69
2023/01/05 15:33:21;;;;;;;2.53;0.90;;;18.50;64.70;;;;;;5014191;28;20674;-69
2023/01/05 15:35:53;;;;;;;2.30;0.95;;;18.50;64.70;;;;;;4982340;28;20287;-69
2023/01/05 15:38:26;;;;;;;1.20;1.10;;;18.50;64.70;;;;;;5010222;28;20215;-70
2023/01/05 15:41:09;;;;;;;5.18;1.17;;;18.50;64.80;;;;;;5029018;28;20188;-69
2023/01/05 15:43:39;;;;;;;1.20;1.10;;;18.50;64.70;;;;;;5006515;28;20188;-70
2023/01/05 15:46:05;;;;;;;2.40;1.00;;;18.50;64.70;;;;;;5012951;28;20188;-70
2023/01/05 15:48:44;;;;;;;2.70;1.23;;;18.50;64.70;;;;;;5000202;28;20208;-69
2023/01/05 15:51:31;;;;;;;1.83;1.00;;;18.50;64.70;;;;;;5011538;28;20202;-70
2023/01/05 15:54:04;;;;;;;1.98;1.20;;;18.50;64.70;;;;;;5012691;28;20192;-69
2023/01/05 15:56:39;;;;;;;5.95;1.25;;;18.50;64.70;;;;;;4994058;28;20236;-69
2023/01/05 15:59:38;;;;;;;2.67;1.13;;;18.50;65.00;;;;;;4992574;28;20687;-70
2023/01/05 16:02:26;;;;;;;1.05;0.82;;;18.50;64.90;;;;;;4993292;28;20213;-70
2023/01/05 16:05:18;;;;;;;2.58;1.00;;;18.50;64.90;;;;;;4993731;28;20196;-70
2023/01/05 16:07:57;;;;;;;2.08;0.95;;;18.50;64.80;;;;;;4987857;28;20272;-69
2023/01/05 16:10:43;;;;;;;2.03;0.90;;;18.50;64.90;;;;;;4996463;28;20192;-70
2023/01/05 16:13:48;;;;;;;1.60;0.90;;;18.50;64.70;;;;;;4986581;28;20180;-69
2023/01/05 16:16:25;;;;;;;2.70;0.90;;;18.50;64.80;;;;;;4991214;28;20291;-70
2023/01/05 16:18:59;;;;;;;1.73;1.10;;;18.50;64.70;;;;;;5028205;28;20214;-69
2023/01/05 16:21:46;;;;;;;1.63;0.90;;;18.50;64.80;;;;;;5000214;28;20204;-69
2023/01/05 16:24:30;;;;;;;2.45;1.05;;;18.50;64.70;;;;;;4992608;28;20199;-70
2023/01/05 16:26:56;;;;;;;1.48;1.08;;;18.50;64.70;;;;;;4980830;28;20195;-70
2023/01/05 16:29:43;;;;;;;2.53;1.35;;;18.50;64.80;;;;;;4993691;28;20725;-70
2023/01/05 16:32:29;;;;;;;1.55;0.88;;;18.50;64.70;;;;;;4992425;28;20216;-69
2023/01/05 16:35:21;;;;;;;2.90;1.00;;;18.50;64.70;;;;;;5005467;28;20189;-70
2023/01/05 16:38:08;;;;;;;1.42;1.00;;;18.50;64.70;;;;;;4986403;28;20299;-70
2023/01/05 16:41:02;;;;;;;2.03;1.33;;;18.50;64.70;;;;;;4989454;28;20278;-70
2023/01/05 16:43:38;;;;;;;2.50;1.20;;;18.50;64.70;;;;;;5004933;28;20192;-69
2023/01/05 16:46:16;;;;;;;2.05;1.10;;;18.50;64.70;;;;;;5026068;28;20202;-70
2023/01/05 16:48:48;;;;;;;2.08;1.00;;;18.50;64.70;;;;;;5025098;28;20259;-70
2023/01/05 16:51:18;;;;;;;2.17;1.20;;;18.50;64.80;;;;;;4990621;28;20200;-70
2023/01/05 16:54:22;;;;;;;2.60;1.27;;;18.50;64.60;;;;;;4995234;28;20185;-70